createdAt,value
2023-11-23T00:08:26.721Z,93.07
2023-11-23T00:18:25.831Z,49.21
2023-11-23T00:28:26.794Z,93.63
2023-11-23T00:38:26.204Z,93.68
2023-11-23T00:48:27.538Z,94.65
2023-11-23T00:58:26.805Z,95.53
2023-11-23T01:08:28.858Z,96.88
2023-11-23T01:18:27.131Z,97.30
2023-11-23T01:28:30.259Z,97.24
2023-11-23T01:38:27.050Z,97.59
2023-11-23T01:48:27.535Z,97.85
2023-11-23T01:58:27.502Z,98.63
2023-11-23T02:08:33.071Z,99.21
2023-11-23T02:18:27.969Z,99.27
2023-11-23T02:28:31.271Z,100.00
2023-11-23T02:38:28.062Z,99.06
2023-11-23T02:48:28.441Z,98.54
2023-11-23T02:58:28.379Z,100.00
2023-11-23T03:08:30.879Z,100.00
2023-11-23T03:18:28.776Z,49.21
2023-11-23T03:38:28.886Z,100.00
2023-11-23T03:48:29.394Z,100.00
2023-11-23T03:58:29.149Z,100.00
2023-11-23T04:08:29.429Z,97.58
2023-11-23T04:18:29.436Z,100.00
2023-11-23T04:28:29.713Z,98.10
2023-11-23T04:38:29.703Z,98.41
2023-11-23T04:48:30.022Z,100.00
2023-11-23T04:58:29.978Z,100.00
2023-11-23T05:08:30.351Z,98.60
2023-11-23T05:18:30.422Z,99.13
2023-11-23T05:28:30.706Z,100.00
2023-11-23T05:38:30.666Z,99.80
2023-11-23T05:48:31.130Z,99.59
2023-11-23T05:58:31.102Z,99.48
2023-11-23T06:08:31.462Z,99.32
2023-11-23T06:18:31.577Z,98.86
2023-11-23T06:28:31.630Z,100.00
2023-11-23T06:38:31.803Z,100.00
2023-11-23T06:48:32.160Z,99.84
2023-11-23T06:58:32.150Z,99.74
2023-11-23T07:08:32.358Z,98.90
2023-11-23T07:18:32.628Z,99.62
2023-11-23T07:28:32.855Z,99.98
2023-11-23T07:38:33.036Z,99.99
2023-11-23T07:48:33.363Z,99.99
2023-11-23T07:58:33.334Z,99.99
2023-11-23T08:08:36.651Z,99.99
2023-11-23T08:18:40.331Z,99.99
2023-11-23T08:28:34.772Z,99.99
2023-11-23T08:38:34.027Z,99.99
2023-11-23T08:48:34.261Z,99.99
2023-11-23T08:58:34.495Z,99.99
2023-11-23T09:08:34.742Z,99.99
2023-11-23T09:18:35.067Z,99.99
2023-11-23T09:28:35.078Z,99.99
2023-11-23T09:38:35.341Z,92.88
2023-11-23T09:48:35.346Z,87.35
2023-11-23T09:58:35.615Z,83.70
2023-11-23T10:08:37.015Z,85.00
2023-11-23T10:18:36.113Z,86.10
2023-11-23T10:28:36.407Z,83.26
2023-11-23T10:38:43.194Z,80.16
2023-11-23T10:48:37.510Z,79.03
2023-11-23T10:58:37.743Z,75.42
2023-11-23T11:08:36.908Z,73.64
2023-11-23T11:18:37.343Z,72.51
2023-11-23T11:28:37.364Z,71.72
2023-11-23T11:38:37.562Z,68.21
2023-11-23T11:48:37.869Z,69.37
2023-11-23T11:58:38.013Z,68.75
2023-11-23T12:08:38.738Z,68.92
2023-11-23T12:18:38.235Z,68.99
2023-11-23T12:28:38.200Z,72.99
2023-11-23T12:38:39.495Z,68.62
2023-11-23T12:48:38.562Z,69.68
2023-11-23T12:58:41.633Z,71.11
2023-11-23T13:08:43.448Z,68.01
2023-11-23T13:18:58.111Z,68.28
2023-11-23T13:28:40.064Z,68.83
2023-11-23T13:38:39.271Z,68.79
2023-11-23T13:48:39.477Z,69.51
2023-11-23T13:58:39.769Z,73.27
2023-11-23T14:08:39.724Z,75.46
2023-11-23T14:18:40.239Z,78.65
2023-11-23T14:28:40.146Z,80.47
2023-11-23T14:38:41.619Z,81.65
2023-11-23T14:48:40.601Z,81.68
2023-11-23T14:58:40.858Z,84.59
2023-11-23T15:08:40.839Z,83.62
2023-11-23T15:18:41.185Z,84.69
2023-11-23T15:28:41.162Z,86.21
2023-11-23T15:38:41.404Z,87.70
2023-11-23T15:48:41.604Z,87.85
2023-11-23T15:58:41.769Z,87.33
2023-11-23T16:08:41.945Z,87.99
2023-11-23T16:18:45.341Z,88.16
2023-11-23T16:28:42.318Z,87.06
2023-11-23T16:38:42.541Z,89.98
2023-11-23T16:48:42.782Z,91.58
2023-11-23T16:58:42.976Z,91.85
2023-11-23T17:08:43.168Z,91.95
2023-11-23T17:18:43.461Z,91.12
2023-11-23T17:28:48.060Z,91.89
2023-11-23T17:38:43.846Z,91.74
2023-11-23T17:48:44.180Z,91.72
2023-11-23T17:58:44.159Z,92.03
2023-11-23T18:08:47.674Z,92.61
2023-11-23T18:18:44.618Z,93.16
2023-11-23T18:28:44.923Z,94.45
2023-11-23T18:38:44.964Z,94.55
2023-11-23T18:48:45.304Z,92.74
2023-11-23T18:58:45.171Z,89.75
2023-11-23T19:08:46.532Z,90.52
2023-11-23T19:18:45.576Z,91.43
2023-11-23T19:28:46.484Z,91.22
2023-11-23T19:38:45.885Z,91.72
2023-11-23T19:48:46.532Z,94.20
2023-11-23T19:58:46.621Z,95.56
2023-11-23T20:08:46.772Z,95.97
2023-11-23T20:18:46.917Z,95.25
2023-11-23T20:28:47.109Z,94.04
2023-11-23T20:38:47.104Z,94.45
2023-11-23T20:48:47.383Z,95.12
2023-11-23T20:58:47.532Z,95.54
2023-11-23T21:08:47.819Z,95.23
2023-11-23T21:18:47.915Z,95.17
2023-11-23T21:28:48.020Z,95.42
2023-11-23T21:38:48.018Z,95.67
2023-11-23T21:48:48.505Z,96.61
2023-11-23T21:58:48.439Z,96.19
2023-11-23T22:08:48.635Z,96.66
2023-11-23T22:18:48.849Z,97.17
2023-11-23T22:28:49.108Z,97.49
2023-11-23T22:38:49.263Z,98.59
2023-11-23T22:48:49.586Z,99.54
2023-11-23T22:58:49.739Z,98.20
2023-11-23T23:08:49.738Z,97.00
2023-11-23T23:18:49.945Z,97.10
2023-11-23T23:28:50.439Z,96.73
2023-11-23T23:38:50.207Z,96.62
2023-11-23T23:48:52.431Z,96.40
2023-11-23T23:58:50.595Z,96.30
